Terminal Aerodrome Forecast
Issued by NWS

Home | Current Version | Previous Version | Text Only | Print | Product List | Glossary On
Versions: 1 2 3 4 5 6 7 8 9 10 11 12 13 14 15 16 17 18 19 20 21 22 23 24 25 26 27 28 29 30
000
FTUS45 KPSR 291100 RRA
TAFSDL
TAF
KSDL 291141Z 2912/3012 VRB03KT P6SM BKN150 OVC250
     FM300000 VRB03KT P6SM VCSH SCT050 OVC100 PROB30 3000/3004 P6SM
      -SHRA BKN040 OVC100
     FM300400 VRB04KT P6SM VCSH OVC040
      TEMPO 3004/3008 6SM -RA BR
     FM300800 VRB04KT P6SM VCSH OVC040
      TEMPO 3008/3012 6SM -RA BR=

USA.gov is the U.S. government's official web portal to all federal, state and local government web resources and services.